PWSweather.com
Personal Weather Stations
Station Observations
ERMELO
Centre, ErmeloNL

CentreErmeloNL

Lat: 52.2986655, Lon: 5.6296194

Elevation: 41

Station Type: Oregon WMR200

www.meteoermelo.nl

High Low Average
Temperature 39.9°F4.4°C 32.0°F0.0°C 36.9°F2.7°C
Dew Point 37.7°F3.2°C 23.4°F-4.8°C 32.9°F0.5°C
Winds 9.9 mph 15.9 kmh 1.9 mph 3.1 kmh 5.0 mph WSW8.0 kmh WSW
Wind Gusts 19.7 mph31.7 kmh 3.4 mph5.5 kmh 9.0 mph14.5 kmh
Humidity 98% 54% 86%
Pressure 29.89 in1012.2 mb 29.50 in999.0 mb -
Precipitation 0.00 in0.0 mm - -
Hour Temp Dew Point Humidity Winds Wind Gusts Pressure Precip Precip Rate Daily Precip Total
12:00 AM 39.9°F4.4°C 37.5°F3.1°C 91% 3.9 mph WSW6.3 kmh WSW 6.5 mph10.5 kmh 29.53 in1000.0 mb 0.00 in0.0 mm 0.00 in0.0 mm 0.00 in0.0 mm
12:15 AM 39.7°F4.3°C 37.3°F2.9°C 91% 4.1 mph WSW6.6 kmh WSW 6.0 mph9.7 kmh 29.53 in1000.0 mb 0.00 in0.0 mm 0.00 in0.0 mm 0.00 in0.0 mm
12:30 AM 39.6°F4.2°C 36.9°F2.7°C 90% 3.9 mph SW6.3 kmh SW 6.7 mph10.8 kmh 29.50 in999.0 mb 0.00 in0.0 mm 0.00 in0.0 mm 0.00 in0.0 mm
12:45 AM 39.6°F4.2°C 37.2°F2.9°C 91% 3.8 mph SW6.1 kmh SW 6.3 mph10.1 kmh 29.53 in1000.0 mb 0.00 in0.0 mm 0.00 in0.0 mm 0.00 in0.0 mm
01:00 AM 39.4°F4.1°C 37.5°F3.1°C 93% 4.3 mph SW6.9 kmh SW 9.4 mph15.1 kmh 29.53 in1000.0 mb 0.00 in0.0 mm 0.00 in0.0 mm 0.00 in0.0 mm
01:15 AM 39.0°F3.9°C 36.6°F2.6°C 91% 4.6 mph SW7.4 kmh SW 7.8 mph12.6 kmh 29.50 in999.0 mb 0.00 in0.0 mm 0.00 in0.0 mm 0.00 in0.0 mm
01:30 AM 38.7°F3.7°C 36.3°F2.4°C 91% 5.2 mph SW8.4 kmh SW 8.1 mph13.0 kmh 29.53 in1000.0 mb 0.00 in0.0 mm 0.00 in0.0 mm 0.00 in0.0 mm
01:45 AM 38.5°F3.6°C 36.4°F2.4°C 92% 3.7 mph SSW6.0 kmh SSW 6.0 mph9.7 kmh 29.53 in1000.0 mb 0.00 in0.0 mm 0.00 in0.0 mm 0.00 in0.0 mm
02:00 AM 38.5°F3.6°C 36.4°F2.4°C 92% 4.4 mph SW7.1 kmh SW 7.4 mph11.9 kmh 29.53 in1000.0 mb 0.00 in0.0 mm 0.00 in0.0 mm 0.00 in0.0 mm
02:15 AM 38.1°F3.4°C 36.0°F2.2°C 92% 5.5 mph SW8.9 kmh SW 7.8 mph12.6 kmh 29.53 in1000.0 mb 0.00 in0.0 mm 0.00 in0.0 mm 0.00 in0.0 mm
02:30 AM 38.1°F3.4°C 36.0°F2.2°C 92% 6.5 mph WSW10.5 kmh WSW 9.8 mph15.8 kmh 29.53 in1000.0 mb 0.00 in0.0 mm 0.00 in0.0 mm 0.00 in0.0 mm
02:45 AM 38.5°F3.6°C 36.4°F2.4°C 92% 6.4 mph SW10.3 kmh SW 10.3 mph16.6 kmh 29.53 in1000.0 mb 0.00 in0.0 mm 0.00 in0.0 mm 0.00 in0.0 mm
03:00 AM 38.7°F3.7°C 36.5°F2.5°C 92% 5.4 mph SW8.7 kmh SW 8.7 mph14.0 kmh 29.53 in1000.0 mb 0.00 in0.0 mm 0.00 in0.0 mm 0.00 in0.0 mm
03:15 AM 38.7°F3.7°C 36.5°F2.5°C 92% 5.7 mph SW9.2 kmh SW 11.0 mph17.7 kmh 29.53 in1000.0 mb 0.00 in0.0 mm 0.00 in0.0 mm 0.00 in0.0 mm
03:30 AM 38.7°F3.7°C 36.3°F2.4°C 91% 5.6 mph SW9.0 kmh SW 8.7 mph14.0 kmh 29.53 in1000.0 mb 0.00 in0.0 mm 0.00 in0.0 mm 0.00 in0.0 mm
03:45 AM 38.5°F3.6°C 36.1°F2.3°C 91% 5.7 mph SW9.2 kmh SW 10.1 mph16.3 kmh 29.53 in1000.0 mb 0.00 in0.0 mm 0.00 in0.0 mm 0.00 in0.0 mm
04:00 AM 38.5°F3.6°C 36.1°F2.3°C 91% 4.6 mph SW7.4 kmh SW 7.8 mph12.6 kmh 29.53 in1000.0 mb 0.00 in0.0 mm 0.00 in0.0 mm 0.00 in0.0 mm
04:15 AM 38.5°F3.6°C 36.4°F2.4°C 92% 5.2 mph SW8.4 kmh SW 8.5 mph13.7 kmh 29.53 in1000.0 mb 0.00 in0.0 mm 0.00 in0.0 mm 0.00 in0.0 mm
04:30 AM 38.3°F3.5°C 36.2°F2.3°C 92% 4.7 mph SW7.6 kmh SW 8.9 mph14.3 kmh 29.53 in1000.0 mb 0.00 in0.0 mm 0.00 in0.0 mm 0.00 in0.0 mm
04:45 AM 38.3°F3.5°C 36.5°F2.5°C 93% 4.7 mph SW7.6 kmh SW 7.6 mph12.2 kmh 29.53 in1000.0 mb 0.00 in0.0 mm 0.00 in0.0 mm 0.00 in0.0 mm
05:00 AM 38.1°F3.4°C 36.5°F2.5°C 94% 4.0 mph SSW6.4 kmh SSW 6.3 mph10.1 kmh 29.53 in1000.0 mb 0.00 in0.0 mm 0.00 in0.0 mm 0.00 in0.0 mm
05:15 AM 37.9°F3.3°C 37.2°F2.9°C 97% 4.1 mph SSW6.6 kmh SSW 7.4 mph11.9 kmh 29.53 in1000.0 mb 0.00 in0.0 mm 0.00 in0.0 mm 0.00 in0.0 mm
05:30 AM 37.4°F3.0°C 36.6°F2.6°C 97% 4.9 mph SSW7.9 kmh SSW 6.9 mph11.1 kmh 29.53 in1000.0 mb 0.00 in0.0 mm 0.00 in0.0 mm 0.00 in0.0 mm
05:45 AM 37.6°F3.1°C 37.1°F2.8°C 98% 4.7 mph SSW7.6 kmh SSW 10.3 mph16.6 kmh 29.53 in1000.0 mb 0.00 in0.0 mm 0.00 in0.0 mm 0.00 in0.0 mm
06:00 AM 37.2°F2.9°C 36.7°F2.6°C 98% 4.0 mph SSW6.4 kmh SSW 6.5 mph10.5 kmh 29.53 in1000.0 mb 0.00 in0.0 mm 0.00 in0.0 mm 0.00 in0.0 mm
06:15 AM 37.0°F2.8°C 36.5°F2.5°C 98% 4.5 mph SSW7.2 kmh SSW 6.9 mph11.1 kmh 29.53 in1000.0 mb 0.00 in0.0 mm 0.00 in0.0 mm 0.00 in0.0 mm
06:30 AM 36.9°F2.7°C 36.3°F2.4°C 98% 3.9 mph SSW6.3 kmh SSW 6.5 mph10.5 kmh 29.50 in999.0 mb 0.00 in0.0 mm 0.00 in0.0 mm 0.00 in0.0 mm
06:45 AM 37.4°F3.0°C 36.9°F2.7°C 98% 5.9 mph SW9.5 kmh SW 13.2 mph21.2 kmh 29.50 in999.0 mb 0.00 in0.0 mm 0.00 in0.0 mm 0.00 in0.0 mm
07:00 AM 37.0°F2.8°C 36.5°F2.5°C 98% 5.0 mph SSW8.0 kmh SSW 10.5 mph16.9 kmh 29.53 in1000.0 mb 0.00 in0.0 mm 0.00 in0.0 mm 0.00 in0.0 mm
07:15 AM 37.0°F2.8°C 36.5°F2.5°C 98% 4.4 mph SSW7.1 kmh SSW 8.1 mph13.0 kmh 29.53 in1000.0 mb 0.00 in0.0 mm 0.00 in0.0 mm 0.00 in0.0 mm
07:30 AM 37.0°F2.8°C 36.5°F2.5°C 98% 4.2 mph SSW6.8 kmh SSW 8.1 mph13.0 kmh 29.53 in1000.0 mb 0.00 in0.0 mm 0.00 in0.0 mm 0.00 in0.0 mm
07:45 AM 36.7°F2.6°C 36.2°F2.3°C 98% 4.7 mph SSW7.6 kmh SSW 8.1 mph13.0 kmh 29.53 in1000.0 mb 0.00 in0.0 mm 0.00 in0.0 mm 0.00 in0.0 mm
08:00 AM 37.2°F2.9°C 36.7°F2.6°C 98% 5.3 mph SW8.5 kmh SW 10.5 mph16.9 kmh 29.53 in1000.0 mb 0.00 in0.0 mm 0.00 in0.0 mm 0.00 in0.0 mm
08:15 AM 37.6°F3.1°C 37.1°F2.8°C 98% 9.7 mph SW15.6 kmh SW 17.7 mph28.5 kmh 29.50 in999.0 mb 0.00 in0.0 mm 0.00 in0.0 mm 0.00 in0.0 mm
08:30 AM 37.6°F3.1°C 37.1°F2.8°C 98% 5.3 mph SW8.5 kmh SW 10.7 mph17.2 kmh 29.53 in1000.0 mb 0.00 in0.0 mm 0.00 in0.0 mm 0.00 in0.0 mm
08:45 AM 37.8°F3.2°C 37.2°F2.9°C 98% 5.5 mph SW8.9 kmh SW 9.6 mph15.4 kmh 29.50 in999.0 mb 0.00 in0.0 mm 0.00 in0.0 mm 0.00 in0.0 mm
09:00 AM 37.8°F3.2°C 37.2°F2.9°C 98% 5.9 mph WSW9.5 kmh WSW 10.1 mph16.3 kmh 29.50 in999.0 mb 0.00 in0.0 mm 0.00 in0.0 mm 0.00 in0.0 mm
09:15 AM 37.8°F3.2°C 37.2°F2.9°C 98% 5.9 mph SW9.5 kmh SW 10.5 mph16.9 kmh 29.53 in1000.0 mb 0.00 in0.0 mm 0.00 in0.0 mm 0.00 in0.0 mm
09:30 AM 37.8°F3.2°C 37.2°F2.9°C 98% 6.7 mph WSW10.8 kmh WSW 11.0 mph17.7 kmh 29.53 in1000.0 mb 0.00 in0.0 mm 0.00 in0.0 mm 0.00 in0.0 mm
09:45 AM 37.4°F3.0°C 36.9°F2.7°C 98% 8.1 mph SW13.0 kmh SW 13.0 mph20.9 kmh 29.53 in1000.0 mb 0.00 in0.0 mm 0.00 in0.0 mm 0.00 in0.0 mm
10:00 AM 37.2°F2.9°C 36.7°F2.6°C 98% 6.5 mph SW10.5 kmh SW 11.0 mph17.7 kmh 29.53 in1000.0 mb 0.00 in0.0 mm 0.00 in0.0 mm 0.00 in0.0 mm
10:15 AM 37.0°F2.8°C 36.3°F2.4°C 97% 5.2 mph SW8.4 kmh SW 8.5 mph13.7 kmh 29.53 in1000.0 mb 0.00 in0.0 mm 0.00 in0.0 mm 0.00 in0.0 mm
10:30 AM 37.2°F2.9°C 36.7°F2.6°C 98% 3.7 mph SW6.0 kmh SW 6.3 mph10.1 kmh 29.53 in1000.0 mb 0.00 in0.0 mm 0.00 in0.0 mm 0.00 in0.0 mm
10:45 AM 37.0°F2.8°C 36.3°F2.4°C 97% 3.1 mph W5.0 kmh W 6.3 mph10.1 kmh 29.53 in1000.0 mb 0.00 in0.0 mm 0.00 in0.0 mm 0.00 in0.0 mm
11:00 AM 37.4°F3.0°C 36.9°F2.7°C 98% 4.8 mph WSW7.7 kmh WSW 9.6 mph15.4 kmh 29.53 in1000.0 mb 0.00 in0.0 mm 0.00 in0.0 mm 0.00 in0.0 mm
11:15 AM 37.8°F3.2°C 37.2°F2.9°C 98% 3.9 mph WSW6.3 kmh WSW 6.9 mph11.1 kmh 29.56 in1001.0 mb 0.00 in0.0 mm 0.00 in0.0 mm 0.00 in0.0 mm
11:30 AM 38.1°F3.4°C 37.6°F3.1°C 98% 2.9 mph W4.7 kmh W 5.6 mph9.0 kmh 29.56 in1001.0 mb 0.00 in0.0 mm 0.00 in0.0 mm 0.00 in0.0 mm
11:45 AM 38.5°F3.6°C 37.7°F3.2°C 97% 4.2 mph W6.8 kmh W 7.8 mph12.6 kmh 29.56 in1001.0 mb 0.00 in0.0 mm 0.00 in0.0 mm 0.00 in0.0 mm
12:00 PM 36.3°F2.4°C 34.5°F1.4°C 93% 9.9 mph WNW15.9 kmh WNW 19.7 mph31.7 kmh 29.56 in1001.0 mb 0.00 in0.0 mm 0.00 in0.0 mm 0.00 in0.0 mm
12:15 PM 36.5°F2.5°C 35.2°F1.8°C 95% 6.4 mph NW10.3 kmh NW 10.3 mph16.6 kmh 29.59 in1002.0 mb 0.00 in0.0 mm 0.00 in0.0 mm 0.00 in0.0 mm
12:30 PM 37.4°F3.0°C 36.4°F2.4°C 96% 4.8 mph NW7.7 kmh NW 10.5 mph16.9 kmh 29.59 in1002.0 mb 0.00 in0.0 mm 0.00 in0.0 mm 0.00 in0.0 mm
12:45 PM 37.8°F3.2°C 36.5°F2.5°C 95% 5.3 mph NW8.5 kmh NW 9.8 mph15.8 kmh 29.59 in1002.0 mb 0.00 in0.0 mm 0.00 in0.0 mm 0.00 in0.0 mm
01:00 PM 38.5°F3.6°C 37.2°F2.9°C 95% 5.0 mph NW8.0 kmh NW 8.1 mph13.0 kmh 29.59 in1002.0 mb 0.00 in0.0 mm 0.00 in0.0 mm 0.00 in0.0 mm
01:15 PM 39.0°F3.9°C 36.3°F2.4°C 90% 5.9 mph WNW9.5 kmh WNW 11.0 mph17.7 kmh 29.62 in1003.0 mb 0.00 in0.0 mm 0.00 in0.0 mm 0.00 in0.0 mm
01:30 PM 39.7°F4.3°C 33.4°F0.8°C 78% 6.8 mph WNW10.9 kmh WNW 13.0 mph20.9 kmh 29.59 in1002.0 mb 0.00 in0.0 mm 0.00 in0.0 mm 0.00 in0.0 mm
01:45 PM 39.4°F4.1°C 30.4°F-0.9°C 70% 8.9 mph WNW14.3 kmh WNW 17.2 mph27.7 kmh 29.59 in1002.0 mb 0.00 in0.0 mm 0.00 in0.0 mm 0.00 in0.0 mm
02:00 PM 39.4°F4.1°C 29.0°F-1.7°C 66% 8.0 mph WNW12.9 kmh WNW 12.3 mph19.8 kmh 29.59 in1002.0 mb 0.00 in0.0 mm 0.00 in0.0 mm 0.00 in0.0 mm
02:15 PM 38.8°F3.8°C 27.3°F-2.6°C 63% 6.9 mph WNW11.1 kmh WNW 12.5 mph20.1 kmh 29.59 in1002.0 mb 0.00 in0.0 mm 0.00 in0.0 mm 0.00 in0.0 mm
02:30 PM 38.5°F3.6°C 27.4°F-2.6°C 64% 5.8 mph WNW9.3 kmh WNW 10.1 mph16.3 kmh 29.59 in1002.0 mb 0.00 in0.0 mm 0.00 in0.0 mm 0.00 in0.0 mm
02:45 PM 38.8°F3.8°C 26.9°F-2.8°C 62% 7.0 mph W11.3 kmh W 11.9 mph19.2 kmh 29.59 in1002.0 mb 0.00 in0.0 mm 0.00 in0.0 mm 0.00 in0.0 mm
03:00 PM 39.7°F4.3°C 26.2°F-3.2°C 58% 7.0 mph W11.3 kmh W 11.0 mph17.7 kmh 29.59 in1002.0 mb 0.00 in0.0 mm 0.00 in0.0 mm 0.00 in0.0 mm
03:15 PM 39.4°F4.1°C 24.5°F-4.2°C 55% 7.2 mph W11.6 kmh W 12.8 mph20.6 kmh 29.62 in1003.0 mb 0.00 in0.0 mm 0.00 in0.0 mm 0.00 in0.0 mm
03:30 PM 39.0°F3.9°C 23.8°F-4.6°C 54% 6.0 mph W9.7 kmh W 10.5 mph16.9 kmh 29.62 in1003.0 mb 0.00 in0.0 mm 0.00 in0.0 mm 0.00 in0.0 mm
03:45 PM 38.5°F3.6°C 23.7°F-4.6°C 55% 6.1 mph W9.8 kmh W 10.3 mph16.6 kmh 29.62 in1003.0 mb 0.00 in0.0 mm 0.00 in0.0 mm 0.00 in0.0 mm
04:00 PM 38.7°F3.7°C 23.4°F-4.8°C 54% 4.5 mph NW7.2 kmh NW 7.4 mph11.9 kmh 29.65 in1004.1 mb 0.00 in0.0 mm 0.00 in0.0 mm 0.00 in0.0 mm
04:15 PM 37.9°F3.3°C 23.6°F-4.7°C 56% 6.4 mph NNW10.3 kmh NNW 8.7 mph14.0 kmh 29.65 in1004.1 mb 0.00 in0.0 mm 0.00 in0.0 mm 0.00 in0.0 mm
04:30 PM 36.9°F2.7°C 24.7°F-4.1°C 61% 3.8 mph W6.1 kmh W 7.6 mph12.2 kmh 29.62 in1003.0 mb 0.00 in0.0 mm 0.00 in0.0 mm 0.00 in0.0 mm
04:45 PM 36.3°F2.4°C 27.1°F-2.7°C 69% 5.1 mph WNW8.2 kmh WNW 12.1 mph19.5 kmh 29.65 in1004.1 mb 0.00 in0.0 mm 0.00 in0.0 mm 0.00 in0.0 mm
05:00 PM 36.1°F2.3°C 28.0°F-2.2°C 72% 3.2 mph WSW5.1 kmh WSW 5.6 mph9.0 kmh 29.65 in1004.1 mb 0.00 in0.0 mm 0.00 in0.0 mm 0.00 in0.0 mm
05:15 PM 35.8°F2.1°C 28.3°F-2.1°C 74% 5.0 mph W8.0 kmh W 8.7 mph14.0 kmh 29.68 in1005.1 mb 0.00 in0.0 mm 0.00 in0.0 mm 0.00 in0.0 mm
05:30 PM 35.8°F2.1°C 29.3°F-1.5°C 77% 3.5 mph WNW5.6 kmh WNW 5.8 mph9.3 kmh 29.71 in1006.1 mb 0.00 in0.0 mm 0.00 in0.0 mm 0.00 in0.0 mm
05:45 PM 35.4°F1.9°C 28.9°F-1.7°C 77% 4.4 mph WNW7.1 kmh WNW 8.5 mph13.7 kmh 29.71 in1006.1 mb 0.00 in0.0 mm 0.00 in0.0 mm 0.00 in0.0 mm
06:00 PM 35.2°F1.8°C 28.8°F-1.8°C 77% 3.2 mph WNW5.1 kmh WNW 6.0 mph9.7 kmh 29.68 in1005.1 mb 0.00 in0.0 mm 0.00 in0.0 mm 0.00 in0.0 mm
06:15 PM 35.1°F1.7°C 28.6°F-1.9°C 77% 3.0 mph W4.8 kmh W 3.8 mph6.1 kmh 29.71 in1006.1 mb 0.00 in0.0 mm 0.00 in0.0 mm 0.00 in0.0 mm
06:30 PM 34.7°F1.5°C 28.5°F-1.9°C 78% 2.2 mph W3.5 kmh W 4.3 mph6.9 kmh 29.71 in1006.1 mb 0.00 in0.0 mm 0.00 in0.0 mm 0.00 in0.0 mm
06:45 PM 34.9°F1.6°C 29.0°F-1.7°C 79% 6.0 mph NW9.7 kmh NW 11.2 mph18.0 kmh 29.74 in1007.1 mb 0.00 in0.0 mm 0.00 in0.0 mm 0.00 in0.0 mm
07:00 PM 34.3°F1.3°C 28.5°F-1.9°C 79% 3.8 mph WNW6.1 kmh WNW 6.3 mph10.1 kmh 29.77 in1008.1 mb 0.00 in0.0 mm 0.00 in0.0 mm 0.00 in0.0 mm
07:15 PM 34.0°F1.1°C 28.2°F-2.1°C 79% 4.0 mph W6.4 kmh W 5.8 mph9.3 kmh 29.77 in1008.1 mb 0.00 in0.0 mm 0.00 in0.0 mm 0.00 in0.0 mm
07:30 PM 33.6°F0.9°C 28.1°F-2.2°C 80% 3.7 mph W6.0 kmh W 5.8 mph9.3 kmh 29.77 in1008.1 mb 0.00 in0.0 mm 0.00 in0.0 mm 0.00 in0.0 mm
07:45 PM 33.4°F0.8°C 28.2°F-2.1°C 81% 4.0 mph W6.4 kmh W 7.4 mph11.9 kmh 29.77 in1008.1 mb 0.00 in0.0 mm 0.00 in0.0 mm 0.00 in0.0 mm
08:00 PM 33.3°F0.7°C 28.1°F-2.2°C 81% 4.5 mph W7.2 kmh W 7.2 mph11.6 kmh 29.77 in1008.1 mb 0.00 in0.0 mm 0.00 in0.0 mm 0.00 in0.0 mm
08:15 PM 33.3°F0.7°C 28.7°F-1.8°C 83% 3.6 mph W5.8 kmh W 6.0 mph9.7 kmh 29.80 in1009.1 mb 0.00 in0.0 mm 0.00 in0.0 mm 0.00 in0.0 mm
08:30 PM 32.7°F0.4°C 27.8°F-2.3°C 82% 2.5 mph WSW4.0 kmh WSW 3.6 mph5.8 kmh 29.80 in1009.1 mb 0.00 in0.0 mm 0.00 in0.0 mm 0.00 in0.0 mm
08:45 PM 32.4°F0.2°C 27.5°F-2.5°C 82% 3.4 mph WSW5.5 kmh WSW 6.0 mph9.7 kmh 29.83 in1010.2 mb 0.00 in0.0 mm 0.00 in0.0 mm 0.00 in0.0 mm
09:00 PM 32.2°F0.1°C 27.3°F-2.6°C 82% 3.2 mph SW5.1 kmh SW 4.9 mph7.9 kmh 29.83 in1010.2 mb 0.00 in0.0 mm 0.00 in0.0 mm 0.00 in0.0 mm
09:15 PM 32.0°F0.0°C 27.4°F-2.6°C 83% 3.3 mph SW5.3 kmh SW 5.4 mph8.7 kmh 29.83 in1010.2 mb 0.00 in0.0 mm 0.00 in0.0 mm 0.00 in0.0 mm
09:30 PM 32.4°F0.2°C 28.1°F-2.2°C 84% 3.1 mph W5.0 kmh W 6.3 mph10.1 kmh 29.83 in1010.2 mb 0.00 in0.0 mm 0.00 in0.0 mm 0.00 in0.0 mm
09:45 PM 33.1°F0.6°C 29.1°F-1.6°C 85% 5.7 mph W9.2 kmh W 10.5 mph16.9 kmh 29.86 in1011.2 mb 0.00 in0.0 mm 0.00 in0.0 mm 0.00 in0.0 mm
10:00 PM 33.3°F0.7°C 29.5°F-1.4°C 86% 4.2 mph WSW6.8 kmh WSW 7.6 mph12.2 kmh 29.83 in1010.2 mb 0.00 in0.0 mm 0.00 in0.0 mm 0.00 in0.0 mm
10:15 PM 33.3°F0.7°C 29.5°F-1.4°C 86% 3.8 mph W6.1 kmh W 7.4 mph11.9 kmh 29.86 in1011.2 mb 0.00 in0.0 mm 0.00 in0.0 mm 0.00 in0.0 mm
10:30 PM 33.6°F0.9°C 30.2°F-1.0°C 87% 3.5 mph W5.6 kmh W 5.8 mph9.3 kmh 29.86 in1011.2 mb 0.00 in0.0 mm 0.00 in0.0 mm 0.00 in0.0 mm
10:45 PM 34.0°F1.1°C 30.5°F-0.8°C 87% 5.2 mph WNW8.4 kmh WNW 11.0 mph17.7 kmh 29.89 in1012.2 mb 0.00 in0.0 mm 0.00 in0.0 mm 0.00 in0.0 mm
11:00 PM 34.0°F1.1°C 30.2°F-1.0°C 86% 2.1 mph NW3.4 kmh NW 6.3 mph10.1 kmh 29.89 in1012.2 mb 0.00 in0.0 mm 0.00 in0.0 mm 0.00 in0.0 mm
11:15 PM 34.2°F1.2°C 30.4°F-0.9°C 86% 2.4 mph N3.9 kmh N 4.3 mph6.9 kmh 29.86 in1011.2 mb 0.00 in0.0 mm 0.00 in0.0 mm 0.00 in0.0 mm
11:30 PM 33.8°F1.0°C 29.8°F-1.2°C 85% 1.9 mph WNW3.1 kmh WNW 4.0 mph6.4 kmh 29.89 in1012.2 mb 0.00 in0.0 mm 0.00 in0.0 mm 0.00 in0.0 mm
11:45 PM 34.2°F1.2°C 30.1°F-1.1°C 85% 2.2 mph N3.5 kmh N 3.4 mph5.5 kmh 29.89 in1012.2 mb 0.00 in0.0 mm 0.00 in0.0 mm 0.00 in0.0 mm